sensor_id;sensor_type;location;lat;lon;timestamp;temperature;humidity
2577;DHT22;1298;51.252;6.802;2022-09-02T00:01:28;19.40;99.90
2577;DHT22;1298;51.252;6.802;2022-09-02T00:04:17;19.40;99.90
2577;DHT22;1298;51.252;6.802;2022-09-02T00:07:03;19.50;99.90
2577;DHT22;1298;51.252;6.802;2022-09-02T00:09:49;19.40;99.90
2577;DHT22;1298;51.252;6.802;2022-09-02T00:12:36;19.30;99.90
2577;DHT22;1298;51.252;6.802;2022-09-02T00:15:21;19.30;99.90
2577;DHT22;1298;51.252;6.802;2022-09-02T00:18:07;19.30;99.90
2577;DHT22;1298;51.252;6.802;2022-09-02T00:20:57;19.40;99.90
2577;DHT22;1298;51.252;6.802;2022-09-02T00:23:43;19.40;99.90
2577;DHT22;1298;51.252;6.802;2022-09-02T00:26:29;19.40;99.90
2577;DHT22;1298;51.252;6.802;2022-09-02T00:29:16;19.30;99.90
2577;DHT22;1298;51.252;6.802;2022-09-02T00:32:02;19.30;99.90
2577;DHT22;1298;51.252;6.802;2022-09-02T00:34:48;19.20;99.90
2577;DHT22;1298;51.252;6.802;2022-09-02T00:37:34;19.30;99.90
2577;DHT22;1298;51.252;6.802;2022-09-02T00:40:20;19.30;99.90
2577;DHT22;1298;51.252;6.802;2022-09-02T00:43:07;19.30;99.90
2577;DHT22;1298;51.252;6.802;2022-09-02T00:45:54;19.30;99.90
2577;DHT22;1298;51.252;6.802;2022-09-02T00:48:43;19.30;99.90
2577;DHT22;1298;51.252;6.802;2022-09-02T00:51:33;19.40;99.90
2577;DHT22;1298;51.252;6.802;2022-09-02T00:54:21;19.40;99.90
2577;DHT22;1298;51.252;6.802;2022-09-02T00:57:11;19.50;99.90
2577;DHT22;1298;51.252;6.802;2022-09-02T01:00:05;19.60;99.90
2577;DHT22;1298;51.252;6.802;2022-09-02T01:02:55;19.70;99.90
2577;DHT22;1298;51.252;6.802;2022-09-02T01:05:43;19.70;99.90
2577;DHT22;1298;51.252;6.802;2022-09-02T01:08:32;19.70;99.90
2577;DHT22;1298;51.252;6.802;2022-09-02T01:11:18;19.60;99.90
2577;DHT22;1298;51.252;6.802;2022-09-02T01:14:05;19.70;99.90
2577;DHT22;1298;51.252;6.802;2022-09-02T01:16:54;19.80;99.90
2577;DHT22;1298;51.252;6.802;2022-09-02T01:19:43;19.80;99.90
2577;DHT22;1298;51.252;6.802;2022-09-02T01:22:32;19.80;99.90
2577;DHT22;1298;51.252;6.802;2022-09-02T01:25:20;19.70;99.90
2577;DHT22;1298;51.252;6.802;2022-09-02T01:28:08;19.60;99.90
2577;DHT22;1298;51.252;6.802;2022-09-02T01:30:53;19.60;99.90
2577;DHT22;1298;51.252;6.802;2022-09-02T01:33:39;19.70;99.90
2577;DHT22;1298;51.252;6.802;2022-09-02T01:36:25;19.70;99.90
2577;DHT22;1298;51.252;6.802;2022-09-02T01:39:12;19.80;99.90
2577;DHT22;1298;51.252;6.802;2022-09-02T01:41:58;19.80;99.90
2577;DHT22;1298;51.252;6.802;2022-09-02T01:44:44;19.70;99.90
2577;DHT22;1298;51.252;6.802;2022-09-02T01:47:29;19.60;99.90
2577;DHT22;1298;51.252;6.802;2022-09-02T01:50:17;19.50;99.90
2577;DHT22;1298;51.252;6.802;2022-09-02T01:53:02;19.40;99.90
2577;DHT22;1298;51.252;6.802;2022-09-02T01:55:50;19.40;99.90
2577;DHT22;1298;51.252;6.802;2022-09-02T01:58:35;19.40;99.90
2577;DHT22;1298;51.252;6.802;2022-09-02T02:01:21;19.40;99.90
2577;DHT22;1298;51.252;6.802;2022-09-02T02:04:06;19.40;99.90
2577;DHT22;1298;51.252;6.802;2022-09-02T02:06:52;19.50;99.90
2577;DHT22;1298;51.252;6.802;2022-09-02T02:09:38;19.70;99.90
2577;DHT22;1298;51.252;6.802;2022-09-02T02:12:25;19.70;99.90
2577;DHT22;1298;51.252;6.802;2022-09-02T02:15:13;19.70;99.90
2577;DHT22;1298;51.252;6.802;2022-09-02T02:17:59;19.60;99.90
2577;DHT22;1298;51.252;6.802;2022-09-02T02:20:45;19.50;99.90
2577;DHT22;1298;51.252;6.802;2022-09-02T02:23:30;19.60;99.90
2577;DHT22;1298;51.252;6.802;2022-09-02T02:26:16;19.60;99.90
2577;DHT22;1298;51.252;6.802;2022-09-02T02:29:03;19.50;99.90
2577;DHT22;1298;51.252;6.802;2022-09-02T02:31:49;19.50;99.90
2577;DHT22;1298;51.252;6.802;2022-09-02T02:34:34;19.40;99.90
2577;DHT22;1298;51.252;6.802;2022-09-02T02:37:20;19.40;99.90
2577;DHT22;1298;51.252;6.802;2022-09-02T02:40:06;19.40;99.90
2577;DHT22;1298;51.252;6.802;2022-09-02T02:42:52;19.40;99.90
2577;DHT22;1298;51.252;6.802;2022-09-02T02:45:40;19.40;99.90
2577;DHT22;1298;51.252;6.802;2022-09-02T02:48:25;19.40;99.90
2577;DHT22;1298;51.252;6.802;2022-09-02T02:51:12;19.40;99.90
2577;DHT22;1298;51.252;6.802;2022-09-02T02:53:58;19.40;99.90
2577;DHT22;1298;51.252;6.802;2022-09-02T02:56:44;19.30;99.90
2577;DHT22;1298;51.252;6.802;2022-09-02T02:59:30;19.40;99.90
2577;DHT22;1298;51.252;6.802;2022-09-02T03:02:17;19.40;99.90
2577;DHT22;1298;51.252;6.802;2022-09-02T03:05:03;19.40;99.90
2577;DHT22;1298;51.252;6.802;2022-09-02T03:07:49;19.40;99.90
2577;DHT22;1298;51.252;6.802;2022-09-02T03:10:35;19.40;99.90
2577;DHT22;1298;51.252;6.802;2022-09-02T03:13:22;19.30;99.90
2577;DHT22;1298;51.252;6.802;2022-09-02T03:16:08;19.20;99.90
2577;DHT22;1298;51.252;6.802;2022-09-02T03:18:55;19.20;99.90
2577;DHT22;1298;51.252;6.802;2022-09-02T03:21:41;19.00;99.90
2577;DHT22;1298;51.252;6.802;2022-09-02T03:24:26;18.90;99.90
2577;DHT22;1298;51.252;6.802;2022-09-02T03:27:12;18.80;99.90
2577;DHT22;1298;51.252;6.802;2022-09-02T03:29:58;18.80;99.90
2577;DHT22;1298;51.252;6.802;2022-09-02T03:32:44;18.70;99.90
2577;DHT22;1298;51.252;6.802;2022-09-02T03:35:32;18.60;99.90
2577;DHT22;1298;51.252;6.802;2022-09-02T03:38:18;18.60;99.90
2577;DHT22;1298;51.252;6.802;2022-09-02T03:41:03;18.60;99.90
2577;DHT22;1298;51.252;6.802;2022-09-02T03:43:49;18.60;99.90
2577;DHT22;1298;51.252;6.802;2022-09-02T03:46:35;18.60;99.90
2577;DHT22;1298;51.252;6.802;2022-09-02T03:49:21;18.60;99.90
2577;DHT22;1298;51.252;6.802;2022-09-02T03:52:08;18.50;99.90
2577;DHT22;1298;51.252;6.802;2022-09-02T03:54:53;18.40;99.90
2577;DHT22;1298;51.252;6.802;2022-09-02T03:57:39;18.40;99.90
2577;DHT22;1298;51.252;6.802;2022-09-02T04:00:26;18.50;99.90
2577;DHT22;1298;51.252;6.802;2022-09-02T04:03:13;18.40;99.90
2577;DHT22;1298;51.252;6.802;2022-09-02T04:05:59;18.40;99.90
2577;DHT22;1298;51.252;6.802;2022-09-02T04:08:46;18.30;99.90
2577;DHT22;1298;51.252;6.802;2022-09-02T04:11:32;18.40;99.90
2577;DHT22;1298;51.252;6.802;2022-09-02T04:14:18;18.40;99.90
2577;DHT22;1298;51.252;6.802;2022-09-02T04:17:03;18.40;99.90
2577;DHT22;1298;51.252;6.802;2022-09-02T04:19:49;18.40;99.90
2577;DHT22;1298;51.252;6.802;2022-09-02T04:22:34;18.40;99.90
2577;DHT22;1298;51.252;6.802;2022-09-02T04:25:21;18.30;99.90
2577;DHT22;1298;51.252;6.802;2022-09-02T04:28:07;18.30;99.90
2577;DHT22;1298;51.252;6.802;2022-09-02T04:30:52;18.30;99.90
2577;DHT22;1298;51.252;6.802;2022-09-02T04:33:38;18.30;99.90
2577;DHT22;1298;51.252;6.802;2022-09-02T04:36:25;18.30;99.90
2577;DHT22;1298;51.252;6.802;2022-09-02T04:39:10;18.30;99.90
2577;DHT22;1298;51.252;6.802;2022-09-02T04:41:58;18.40;99.90
2577;DHT22;1298;51.252;6.802;2022-09-02T04:44:43;18.40;99.90
2577;DHT22;1298;51.252;6.802;2022-09-02T04:47:29;18.30;99.90
2577;DHT22;1298;51.252;6.802;2022-09-02T04:50:15;18.30;99.90
2577;DHT22;1298;51.252;6.802;2022-09-02T04:53:01;18.30;99.90
2577;DHT22;1298;51.252;6.802;2022-09-02T04:55:46;18.30;99.90
2577;DHT22;1298;51.252;6.802;2022-09-02T04:58:34;18.30;99.90
2577;DHT22;1298;51.252;6.802;2022-09-02T05:01:22;18.30;99.90
2577;DHT22;1298;51.252;6.802;2022-09-02T05:04:08;18.30;99.90
2577;DHT22;1298;51.252;6.802;2022-09-02T05:06:54;18.40;99.90
2577;DHT22;1298;51.252;6.802;2022-09-02T05:09:41;18.40;99.90
2577;DHT22;1298;51.252;6.802;2022-09-02T05:12:26;18.30;99.90
2577;DHT22;1298;51.252;6.802;2022-09-02T05:15:14;18.20;99.90
2577;DHT22;1298;51.252;6.802;2022-09-02T05:18:00;18.20;99.90
2577;DHT22;1298;51.252;6.802;2022-09-02T05:20:45;18.20;99.90
2577;DHT22;1298;51.252;6.802;2022-09-02T05:23:31;18.20;99.90
2577;DHT22;1298;51.252;6.802;2022-09-02T05:26:17;18.30;99.90
2577;DHT22;1298;51.252;6.802;2022-09-02T05:29:03;18.40;99.90
2577;DHT22;1298;51.252;6.802;2022-09-02T05:31:52;18.40;99.90
2577;DHT22;1298;51.252;6.802;2022-09-02T05:34:37;18.50;99.90
2577;DHT22;1298;51.252;6.802;2022-09-02T05:37:23;18.50;99.90
2577;DHT22;1298;51.252;6.802;2022-09-02T05:40:09;18.50;99.90
2577;DHT22;1298;51.252;6.802;2022-09-02T05:42:55;18.50;99.90
2577;DHT22;1298;51.252;6.802;2022-09-02T05:45:41;18.50;99.90
2577;DHT22;1298;51.252;6.802;2022-09-02T05:48:28;18.50;99.90
2577;DHT22;1298;51.252;6.802;2022-09-02T05:51:33;18.50;99.90
2577;DHT22;1298;51.252;6.802;2022-09-02T05:54:23;18.60;99.90
2577;DHT22;1298;51.252;6.802;2022-09-02T05:57:11;18.60;99.90
2577;DHT22;1298;51.252;6.802;2022-09-02T05:59:57;18.70;99.90
2577;DHT22;1298;51.252;6.802;2022-09-02T06:02:43;18.80;99.90
2577;DHT22;1298;51.252;6.802;2022-09-02T06:05:30;18.90;99.90
2577;DHT22;1298;51.252;6.802;2022-09-02T06:08:15;19.00;99.90
2577;DHT22;1298;51.252;6.802;2022-09-02T06:11:02;19.10;99.90
2577;DHT22;1298;51.252;6.802;2022-09-02T06:13:48;19.30;99.90
2577;DHT22;1298;51.252;6.802;2022-09-02T06:16:37;19.30;99.90
2577;DHT22;1298;51.252;6.802;2022-09-02T06:19:24;19.40;99.90
2577;DHT22;1298;51.252;6.802;2022-09-02T06:22:11;19.50;99.90
2577;DHT22;1298;51.252;6.802;2022-09-02T06:24:56;19.60;99.90
2577;DHT22;1298;51.252;6.802;2022-09-02T06:27:42;19.70;99.90
2577;DHT22;1298;51.252;6.802;2022-09-02T06:30:28;19.70;99.90
2577;DHT22;1298;51.252;6.802;2022-09-02T06:33:13;19.80;99.90
2577;DHT22;1298;51.252;6.802;2022-09-02T06:35:59;19.90;99.90
2577;DHT22;1298;51.252;6.802;2022-09-02T06:38:48;20.00;99.90
2577;DHT22;1298;51.252;6.802;2022-09-02T06:41:34;20.10;99.90
2577;DHT22;1298;51.252;6.802;2022-09-02T06:44:19;20.20;99.90
2577;DHT22;1298;51.252;6.802;2022-09-02T06:47:06;20.30;99.90
2577;DHT22;1298;51.252;6.802;2022-09-02T06:49:51;20.40;99.90
2577;DHT22;1298;51.252;6.802;2022-09-02T06:52:37;20.40;99.90
2577;DHT22;1298;51.252;6.802;2022-09-02T06:55:24;20.50;99.90
2577;DHT22;1298;51.252;6.802;2022-09-02T06:58:10;20.60;99.90
2577;DHT22;1298;51.252;6.802;2022-09-02T07:00:56;20.60;99.90
2577;DHT22;1298;51.252;6.802;2022-09-02T07:03:42;20.90;99.90
2577;DHT22;1298;51.252;6.802;2022-09-02T07:06:47;21.20;99.90
2577;DHT22;1298;51.252;6.802;2022-09-02T07:09:33;21.50;99.90
2577;DHT22;1298;51.252;6.802;2022-09-02T07:12:20;21.60;99.90
2577;DHT22;1298;51.252;6.802;2022-09-02T07:15:07;21.70;99.90
2577;DHT22;1298;51.252;6.802;2022-09-02T07:17:53;21.60;99.90
2577;DHT22;1298;51.252;6.802;2022-09-02T07:20:39;21.50;99.90
2577;DHT22;1298;51.252;6.802;2022-09-02T07:23:24;21.40;99.90
2577;DHT22;1298;51.252;6.802;2022-09-02T07:26:11;21.40;99.90
2577;DHT22;1298;51.252;6.802;2022-09-02T07:28:58;21.40;99.90
2577;DHT22;1298;51.252;6.802;2022-09-02T07:31:45;21.50;99.90
2577;DHT22;1298;51.252;6.802;2022-09-02T07:34:31;21.60;99.90
2577;DHT22;1298;51.252;6.802;2022-09-02T07:37:17;21.60;99.90
2577;DHT22;1298;51.252;6.802;2022-09-02T07:40:03;21.60;99.90
2577;DHT22;1298;51.252;6.802;2022-09-02T07:42:49;21.50;99.90
2577;DHT22;1298;51.252;6.802;2022-09-02T07:45:37;21.40;99.90
2577;DHT22;1298;51.252;6.802;2022-09-02T07:48:23;21.30;99.90
2577;DHT22;1298;51.252;6.802;2022-09-02T07:51:09;21.20;99.90
2577;DHT22;1298;51.252;6.802;2022-09-02T07:53:54;21.20;99.90
2577;DHT22;1298;51.252;6.802;2022-09-02T07:56:40;21.20;99.90
2577;DHT22;1298;51.252;6.802;2022-09-02T07:59:26;21.30;99.90
2577;DHT22;1298;51.252;6.802;2022-09-02T08:02:13;21.50;99.90
2577;DHT22;1298;51.252;6.802;2022-09-02T08:04:59;21.60;99.90
2577;DHT22;1298;51.252;6.802;2022-09-02T08:07:45;21.60;99.90
2577;DHT22;1298;51.252;6.802;2022-09-02T08:10:32;21.60;99.90
2577;DHT22;1298;51.252;6.802;2022-09-02T08:13:18;21.70;99.90
2577;DHT22;1298;51.252;6.802;2022-09-02T08:16:04;21.70;99.90
2577;DHT22;1298;51.252;6.802;2022-09-02T08:18:51;21.70;99.90
2577;DHT22;1298;51.252;6.802;2022-09-02T08:21:37;21.60;99.90
2577;DHT22;1298;51.252;6.802;2022-09-02T08:24:23;21.50;99.90
2577;DHT22;1298;51.252;6.802;2022-09-02T08:27:08;21.60;99.90
2577;DHT22;1298;51.252;6.802;2022-09-02T08:29:54;21.60;99.90
2577;DHT22;1298;51.252;6.802;2022-09-02T08:32:40;21.70;99.90
2577;DHT22;1298;51.252;6.802;2022-09-02T08:35:27;21.90;99.90
2577;DHT22;1298;51.252;6.802;2022-09-02T08:38:12;22.20;99.90
2577;DHT22;1298;51.252;6.802;2022-09-02T08:40:58;22.30;99.90
2577;DHT22;1298;51.252;6.802;2022-09-02T08:43:45;22.40;99.90
2577;DHT22;1298;51.252;6.802;2022-09-02T08:46:33;22.50;99.90
2577;DHT22;1298;51.252;6.802;2022-09-02T08:49:23;22.50;99.90
2577;DHT22;1298;51.252;6.802;2022-09-02T08:52:14;22.60;99.90
2577;DHT22;1298;51.252;6.802;2022-09-02T08:55:03;22.70;99.90
2577;DHT22;1298;51.252;6.802;2022-09-02T08:57:50;22.80;99.90
2577;DHT22;1298;51.252;6.802;2022-09-02T09:00:41;22.90;99.90
2577;DHT22;1298;51.252;6.802;2022-09-02T09:03:30;22.90;99.90
2577;DHT22;1298;51.252;6.802;2022-09-02T09:06:20;22.80;99.90
2577;DHT22;1298;51.252;6.802;2022-09-02T09:09:14;22.90;99.90
2577;DHT22;1298;51.252;6.802;2022-09-02T09:12:09;22.90;99.90
2577;DHT22;1298;51.252;6.802;2022-09-02T09:15:02;23.10;99.90
2577;DHT22;1298;51.252;6.802;2022-09-02T09:17:51;23.20;99.90
2577;DHT22;1298;51.252;6.802;2022-09-02T09:20:42;23.30;99.90
2577;DHT22;1298;51.252;6.802;2022-09-02T09:23:29;23.50;99.90
2577;DHT22;1298;51.252;6.802;2022-09-02T09:26:23;23.60;99.90
2577;DHT22;1298;51.252;6.802;2022-09-02T09:29:11;23.60;99.90
2577;DHT22;1298;51.252;6.802;2022-09-02T09:31:58;23.70;99.90
2577;DHT22;1298;51.252;6.802;2022-09-02T09:34:56;23.80;99.90
2577;DHT22;1298;51.252;6.802;2022-09-02T09:37:45;23.90;99.90
2577;DHT22;1298;51.252;6.802;2022-09-02T09:40:32;23.90;99.90
2577;DHT22;1298;51.252;6.802;2022-09-02T09:43:20;23.90;99.90
2577;DHT22;1298;51.252;6.802;2022-09-02T09:46:25;23.90;99.90
2577;DHT22;1298;51.252;6.802;2022-09-02T09:49:24;24.00;99.90
2577;DHT22;1298;51.252;6.802;2022-09-02T09:52:10;24.10;99.90
2577;DHT22;1298;51.252;6.802;2022-09-02T09:55:13;24.30;99.90
2577;DHT22;1298;51.252;6.802;2022-09-02T09:58:07;24.40;99.90
2577;DHT22;1298;51.252;6.802;2022-09-02T10:00:55;24.30;99.90
2577;DHT22;1298;51.252;6.802;2022-09-02T10:03:48;24.30;99.90
2577;DHT22;1298;51.252;6.802;2022-09-02T10:06:38;24.40;99.90
2577;DHT22;1298;51.252;6.802;2022-09-02T10:09:30;24.50;99.90
2577;DHT22;1298;51.252;6.802;2022-09-02T10:12:30;24.70;99.90
2577;DHT22;1298;51.252;6.802;2022-09-02T10:15:23;24.70;99.90
2577;DHT22;1298;51.252;6.802;2022-09-02T10:18:21;24.70;99.90
2577;DHT22;1298;51.252;6.802;2022-09-02T10:21:22;24.90;99.90
2577;DHT22;1298;51.252;6.802;2022-09-02T10:24:17;25.00;99.90
2577;DHT22;1298;51.252;6.802;2022-09-02T10:27:14;25.20;99.90
2577;DHT22;1298;51.252;6.802;2022-09-02T10:30:04;25.30;99.90
2577;DHT22;1298;51.252;6.802;2022-09-02T10:33:06;25.30;99.90
2577;DHT22;1298;51.252;6.802;2022-09-02T10:36:01;25.40;99.90
2577;DHT22;1298;51.252;6.802;2022-09-02T10:38:49;25.20;99.90
2577;DHT22;1298;51.252;6.802;2022-09-02T10:41:40;24.90;99.90
2577;DHT22;1298;51.252;6.802;2022-09-02T10:44:32;24.90;99.90
2577;DHT22;1298;51.252;6.802;2022-09-02T10:47:25;25.00;99.90
2577;DHT22;1298;51.252;6.802;2022-09-02T10:50:17;25.10;99.90
2577;DHT22;1298;51.252;6.802;2022-09-02T10:53:29;25.10;99.90
2577;DHT22;1298;51.252;6.802;2022-09-02T10:56:18;25.30;99.90
2577;DHT22;1298;51.252;6.802;2022-09-02T10:59:09;25.60;99.90
2577;DHT22;1298;51.252;6.802;2022-09-02T11:01:58;25.80;99.90
2577;DHT22;1298;51.252;6.802;2022-09-02T11:04:47;25.80;99.90
2577;DHT22;1298;51.252;6.802;2022-09-02T11:07:40;25.80;99.90
2577;DHT22;1298;51.252;6.802;2022-09-02T11:10:31;25.60;99.90
2577;DHT22;1298;51.252;6.802;2022-09-02T11:13:23;25.50;99.90
2577;DHT22;1298;51.252;6.802;2022-09-02T11:16:17;25.50;99.90
2577;DHT22;1298;51.252;6.802;2022-09-02T11:19:09;25.70;99.90
2577;DHT22;1298;51.252;6.802;2022-09-02T11:21:59;26.10;99.90
2577;DHT22;1298;51.252;6.802;2022-09-02T11:24:51;26.10;99.90
2577;DHT22;1298;51.252;6.802;2022-09-02T11:27:44;26.20;99.90
2577;DHT22;1298;51.252;6.802;2022-09-02T11:30:37;26.30;99.90
2577;DHT22;1298;51.252;6.802;2022-09-02T11:33:30;26.30;99.90
2577;DHT22;1298;51.252;6.802;2022-09-02T11:36:18;26.50;99.90
2577;DHT22;1298;51.252;6.802;2022-09-02T11:39:08;26.80;99.90
2577;DHT22;1298;51.252;6.802;2022-09-02T11:42:05;26.90;99.90
2577;DHT22;1298;51.252;6.802;2022-09-02T11:45:16;26.80;99.90
2577;DHT22;1298;51.252;6.802;2022-09-02T11:51:57;27.00;99.90
2577;DHT22;1298;51.252;6.802;2022-09-02T11:54:48;27.00;99.90
2577;DHT22;1298;51.252;6.802;2022-09-02T11:57:36;26.90;99.90
2577;DHT22;1298;51.252;6.802;2022-09-02T12:00:34;26.70;99.90
2577;DHT22;1298;51.252;6.802;2022-09-02T12:03:21;26.60;99.90
2577;DHT22;1298;51.252;6.802;2022-09-02T12:06:10;26.80;99.90
2577;DHT22;1298;51.252;6.802;2022-09-02T12:09:07;27.10;99.90
2577;DHT22;1298;51.252;6.802;2022-09-02T12:11:53;26.70;99.90
2577;DHT22;1298;51.252;6.802;2022-09-02T12:15:02;26.60;99.90
2577;DHT22;1298;51.252;6.802;2022-09-02T12:18:26;26.70;99.90
2577;DHT22;1298;51.252;6.802;2022-09-02T12:21:15;26.90;99.90
2577;DHT22;1298;51.252;6.802;2022-09-02T12:24:08;27.30;99.90
2577;DHT22;1298;51.252;6.802;2022-09-02T12:27:07;27.60;99.90
2577;DHT22;1298;51.252;6.802;2022-09-02T12:29:55;27.70;99.90
2577;DHT22;1298;51.252;6.802;2022-09-02T12:33:03;27.30;99.90
2577;DHT22;1298;51.252;6.802;2022-09-02T12:35:55;27.00;99.90
2577;DHT22;1298;51.252;6.802;2022-09-02T12:38:41;27.00;99.90
2577;DHT22;1298;51.252;6.802;2022-09-02T12:41:28;27.30;99.90
2577;DHT22;1298;51.252;6.802;2022-09-02T12:44:33;27.60;99.90
2577;DHT22;1298;51.252;6.802;2022-09-02T12:47:27;27.30;99.90
2577;DHT22;1298;51.252;6.802;2022-09-02T12:50:24;27.40;99.90
2577;DHT22;1298;51.252;6.802;2022-09-02T12:53:34;27.50;99.90
2577;DHT22;1298;51.252;6.802;2022-09-02T12:56:21;27.60;99.90
2577;DHT22;1298;51.252;6.802;2022-09-02T12:59:07;28.10;99.90
2577;DHT22;1298;51.252;6.802;2022-09-02T13:05:10;29.10;99.90
2577;DHT22;1298;51.252;6.802;2022-09-02T13:08:18;29.20;99.90
2577;DHT22;1298;51.252;6.802;2022-09-02T13:11:30;29.70;99.90
2577;DHT22;1298;51.252;6.802;2022-09-02T13:14:51;30.70;99.90
2577;DHT22;1298;51.252;6.802;2022-09-02T13:17:53;31.40;99.90
2577;DHT22;1298;51.252;6.802;2022-09-02T13:21:20;32.20;99.90
2577;DHT22;1298;51.252;6.802;2022-09-02T13:28:15;31.30;99.90
2577;DHT22;1298;51.252;6.802;2022-09-02T13:31:11;31.20;99.90
2577;DHT22;1298;51.252;6.802;2022-09-02T13:33:59;32.50;99.90
2577;DHT22;1298;51.252;6.802;2022-09-02T13:36:45;32.70;99.90
2577;DHT22;1298;51.252;6.802;2022-09-02T13:39:31;31.90;99.90
2577;DHT22;1298;51.252;6.802;2022-09-02T13:42:20;30.90;99.90
2577;DHT22;1298;51.252;6.802;2022-09-02T13:45:11;31.10;99.90
2577;DHT22;1298;51.252;6.802;2022-09-02T13:47:59;31.90;99.90
2577;DHT22;1298;51.252;6.802;2022-09-02T13:50:46;33.00;99.90
2577;DHT22;1298;51.252;6.802;2022-09-02T13:53:34;34.20;99.90
2577;DHT22;1298;51.252;6.802;2022-09-02T13:56:23;35.00;99.90
2577;DHT22;1298;51.252;6.802;2022-09-02T13:59:10;34.90;99.90
2577;DHT22;1298;51.252;6.802;2022-09-02T14:01:57;34.90;99.90
2577;DHT22;1298;51.252;6.802;2022-09-02T14:04:42;35.40;99.90
2577;DHT22;1298;51.252;6.802;2022-09-02T14:07:31;36.10;99.90
2577;DHT22;1298;51.252;6.802;2022-09-02T14:10:19;36.50;99.90
2577;DHT22;1298;51.252;6.802;2022-09-02T14:13:06;36.20;99.90
2577;DHT22;1298;51.252;6.802;2022-09-02T14:15:52;35.80;99.90
2577;DHT22;1298;51.252;6.802;2022-09-02T14:19:03;35.70;99.90
2577;DHT22;1298;51.252;6.802;2022-09-02T14:21:49;36.10;99.90
2577;DHT22;1298;51.252;6.802;2022-09-02T14:24:38;35.80;99.90
2577;DHT22;1298;51.252;6.802;2022-09-02T14:27:24;35.10;99.90
2577;DHT22;1298;51.252;6.802;2022-09-02T14:30:10;34.40;99.90
2577;DHT22;1298;51.252;6.802;2022-09-02T14:33:17;34.80;99.90
2577;DHT22;1298;51.252;6.802;2022-09-02T14:36:06;35.30;99.90
2577;DHT22;1298;51.252;6.802;2022-09-02T14:38:54;35.40;99.90
2577;DHT22;1298;51.252;6.802;2022-09-02T14:41:46;35.50;99.90
2577;DHT22;1298;51.252;6.802;2022-09-02T14:44:33;35.40;99.90
2577;DHT22;1298;51.252;6.802;2022-09-02T14:47:20;34.70;99.90
2577;DHT22;1298;51.252;6.802;2022-09-02T14:50:09;34.10;99.90
2577;DHT22;1298;51.252;6.802;2022-09-02T14:53:02;34.10;99.90
2577;DHT22;1298;51.252;6.802;2022-09-02T14:55:50;34.80;99.90
2577;DHT22;1298;51.252;6.802;2022-09-02T14:58:37;35.30;99.90
2577;DHT22;1298;51.252;6.802;2022-09-02T15:01:22;35.80;99.90
2577;DHT22;1298;51.252;6.802;2022-09-02T15:04:08;35.20;99.90
2577;DHT22;1298;51.252;6.802;2022-09-02T15:06:54;35.10;99.90
2577;DHT22;1298;51.252;6.802;2022-09-02T15:09:40;35.40;99.90
2577;DHT22;1298;51.252;6.802;2022-09-02T15:12:30;36.10;99.90
2577;DHT22;1298;51.252;6.802;2022-09-02T15:15:17;36.80;99.90
2577;DHT22;1298;51.252;6.802;2022-09-02T15:18:03;36.90;99.90
2577;DHT22;1298;51.252;6.802;2022-09-02T15:20:51;36.90;99.90
2577;DHT22;1298;51.252;6.802;2022-09-02T15:23:37;36.80;99.90
2577;DHT22;1298;51.252;6.802;2022-09-02T15:26:25;36.70;99.90
2577;DHT22;1298;51.252;6.802;2022-09-02T15:29:10;36.80;99.90
2577;DHT22;1298;51.252;6.802;2022-09-02T15:31:56;37.00;99.90
2577;DHT22;1298;51.252;6.802;2022-09-02T15:34:42;37.30;99.90
2577;DHT22;1298;51.252;6.802;2022-09-02T15:37:27;37.70;99.90
2577;DHT22;1298;51.252;6.802;2022-09-02T15:40:13;37.40;99.90
2577;DHT22;1298;51.252;6.802;2022-09-02T15:43:00;37.00;99.90
2577;DHT22;1298;51.252;6.802;2022-09-02T15:45:46;36.00;99.90
2577;DHT22;1298;51.252;6.802;2022-09-02T15:48:32;34.40;99.90
2577;DHT22;1298;51.252;6.802;2022-09-02T15:51:19;33.60;99.90
2577;DHT22;1298;51.252;6.802;2022-09-02T15:54:06;34.00;99.90
2577;DHT22;1298;51.252;6.802;2022-09-02T15:56:54;34.80;99.90
2577;DHT22;1298;51.252;6.802;2022-09-02T15:59:41;35.20;99.90
2577;DHT22;1298;51.252;6.802;2022-09-02T16:02:27;35.10;99.90
2577;DHT22;1298;51.252;6.802;2022-09-02T16:05:13;35.20;99.90
2577;DHT22;1298;51.252;6.802;2022-09-02T16:07:58;35.50;99.90
2577;DHT22;1298;51.252;6.802;2022-09-02T16:10:44;36.30;99.90
2577;DHT22;1298;51.252;6.802;2022-09-02T16:13:30;36.10;99.90
2577;DHT22;1298;51.252;6.802;2022-09-02T16:16:19;35.60;99.90
2577;DHT22;1298;51.252;6.802;2022-09-02T16:19:06;35.30;99.90
2577;DHT22;1298;51.252;6.802;2022-09-02T16:21:52;35.10;99.90
2577;DHT22;1298;51.252;6.802;2022-09-02T16:24:37;35.50;99.90
2577;DHT22;1298;51.252;6.802;2022-09-02T16:27:23;35.70;99.90
2577;DHT22;1298;51.252;6.802;2022-09-02T16:30:22;35.50;99.90
2577;DHT22;1298;51.252;6.802;2022-09-02T16:33:10;35.30;99.90
2577;DHT22;1298;51.252;6.802;2022-09-02T16:35:56;35.20;99.90
2577;DHT22;1298;51.252;6.802;2022-09-02T16:38:45;35.00;99.90
2577;DHT22;1298;51.252;6.802;2022-09-02T16:41:49;34.90;99.90
2577;DHT22;1298;51.252;6.802;2022-09-02T16:44:36;34.90;99.90
2577;DHT22;1298;51.252;6.802;2022-09-02T16:47:25;34.90;99.90
2577;DHT22;1298;51.252;6.802;2022-09-02T16:50:12;34.70;99.90
2577;DHT22;1298;51.252;6.802;2022-09-02T16:52:58;34.60;99.90
2577;DHT22;1298;51.252;6.802;2022-09-02T16:55:44;34.50;99.90
2577;DHT22;1298;51.252;6.802;2022-09-02T16:58:39;34.30;99.90
2577;DHT22;1298;51.252;6.802;2022-09-02T17:01:39;34.10;99.90
2577;DHT22;1298;51.252;6.802;2022-09-02T17:04:24;33.90;99.90
2577;DHT22;1298;51.252;6.802;2022-09-02T17:07:11;33.10;99.90
2577;DHT22;1298;51.252;6.802;2022-09-02T17:09:57;32.50;99.90
2577;DHT22;1298;51.252;6.802;2022-09-02T17:12:43;32.40;99.90
2577;DHT22;1298;51.252;6.802;2022-09-02T17:15:29;32.10;99.90
2577;DHT22;1298;51.252;6.802;2022-09-02T17:18:15;32.20;99.90
2577;DHT22;1298;51.252;6.802;2022-09-02T17:21:21;32.70;99.90
2577;DHT22;1298;51.252;6.802;2022-09-02T17:24:10;32.80;99.90
2577;DHT22;1298;51.252;6.802;2022-09-02T17:26:57;32.90;99.90
2577;DHT22;1298;51.252;6.802;2022-09-02T17:29:44;33.10;99.90
2577;DHT22;1298;51.252;6.802;2022-09-02T17:32:31;32.60;99.90
2577;DHT22;1298;51.252;6.802;2022-09-02T17:35:18;32.00;99.90
2577;DHT22;1298;51.252;6.802;2022-09-02T17:38:04;31.60;99.90
2577;DHT22;1298;51.252;6.802;2022-09-02T17:40:51;31.30;99.90
2577;DHT22;1298;51.252;6.802;2022-09-02T17:43:56;31.10;99.90
2577;DHT22;1298;51.252;6.802;2022-09-02T17:46:43;30.60;99.90
2577;DHT22;1298;51.252;6.802;2022-09-02T17:49:29;30.10;99.90
2577;DHT22;1298;51.252;6.802;2022-09-02T17:52:16;29.70;99.90
2577;DHT22;1298;51.252;6.802;2022-09-02T17:55:02;29.30;99.90
2577;DHT22;1298;51.252;6.802;2022-09-02T17:57:56;28.80;99.90
2577;DHT22;1298;51.252;6.802;2022-09-02T18:00:45;28.30;99.90
2577;DHT22;1298;51.252;6.802;2022-09-02T18:03:36;27.80;99.90
2577;DHT22;1298;51.252;6.802;2022-09-02T18:06:28;27.30;99.90
2577;DHT22;1298;51.252;6.802;2022-09-02T18:09:20;26.50;99.90
2577;DHT22;1298;51.252;6.802;2022-09-02T18:12:06;26.00;99.90
2577;DHT22;1298;51.252;6.802;2022-09-02T18:14:57;25.70;99.90
2577;DHT22;1298;51.252;6.802;2022-09-02T18:17:45;25.40;99.90
2577;DHT22;1298;51.252;6.802;2022-09-02T18:20:38;25.10;99.90
2577;DHT22;1298;51.252;6.802;2022-09-02T18:23:36;24.80;99.90
2577;DHT22;1298;51.252;6.802;2022-09-02T18:26:34;24.60;99.90
2577;DHT22;1298;51.252;6.802;2022-09-02T18:29:37;24.40;99.90
2577;DHT22;1298;51.252;6.802;2022-09-02T18:32:45;24.20;99.90
2577;DHT22;1298;51.252;6.802;2022-09-02T18:35:41;24.00;99.90